Time;durP1;ratioP1;P1;durP2;ratioP2;P2;SDS_P1;SDS_P2;PMS_P1;PMS_P2;Temp;Humidity;BMP_temperature;BMP_pressure;BME280_temperature;BME280_humidity;BME280_pressure;Samples;Min_cycle;Max_cycle;Signal;HPM_P1;HPM_P2
2022/03/28 00:02:02;;;;;;;39.37;18.80;;;13.50;51.70;;;;;;5032881;28;20489;-68
2022/03/28 00:04:29;;;;;;;36.13;20.77;;;13.50;51.80;;;;;;5032830;28;21022;-69
2022/03/28 00:06:56;;;;;;;22.70;17.77;;;13.40;52.00;;;;;;5033155;28;20450;-68
2022/03/28 00:09:25;;;;;;;28.33;20.80;;;13.30;52.10;;;;;;5032882;28;20536;-68
2022/03/28 00:11:52;;;;;;;26.90;17.77;;;13.20;52.20;;;;;;5032654;28;20459;-68
2022/03/28 00:14:19;;;;;;;26.50;17.33;;;13.10;52.40;;;;;;5032496;28;20458;-67
2022/03/28 00:16:46;;;;;;;33.37;19.47;;;13.10;52.30;;;;;;5032605;28;20454;-69
2022/03/28 00:19:13;;;;;;;27.87;19.90;;;13.00;52.50;;;;;;5032639;28;20466;-67
2022/03/28 00:21:41;;;;;;;24.47;17.17;;;13.00;52.60;;;;;;5032664;28;20451;-67
2022/03/28 00:24:08;;;;;;;32.83;21.07;;;12.80;52.90;;;;;;5032620;28;20451;-67
2022/03/28 00:26:37;;;;;;;30.40;18.47;;;12.70;53.30;;;;;;5032394;28;20468;-69
2022/03/28 00:29:04;;;;;;;30.20;17.70;;;12.70;53.40;;;;;;5032267;28;20811;-67
2022/03/28 00:31:31;;;;;;;28.77;19.23;;;12.80;53.00;;;;;;5032320;28;20447;-68
2022/03/28 00:33:58;;;;;;;28.53;20.33;;;12.80;52.80;;;;;;5032283;28;20494;-68
2022/03/28 00:36:25;;;;;;;36.70;20.80;;;12.80;53.00;;;;;;5032644;28;20467;-69
2022/03/28 00:38:52;;;;;;;28.93;19.60;;;12.70;53.30;;;;;;5032369;28;20470;-68
2022/03/28 00:41:19;;;;;;;27.17;17.30;;;12.60;53.50;;;;;;5032024;28;20818;-68
2022/03/28 00:43:55;;;;;;;29.93;18.60;;;12.60;53.70;;;;;;5031959;28;20458;-68
2022/03/28 00:46:23;;;;;;;23.87;17.03;;;12.80;53.80;;;;;;5031973;28;20969;-69
2022/03/28 00:48:50;;;;;;;23.80;17.37;;;12.80;53.60;;;;;;5031269;28;20509;-68
2022/03/28 00:51:19;;;;;;;31.90;17.97;;;12.80;53.90;;;;;;5032087;28;20443;-69
2022/03/28 00:53:47;;;;;;;19.47;15.73;;;12.70;54.00;;;;;;5031752;28;20493;-69
2022/03/28 00:56:15;;;;;;;29.17;16.43;;;12.60;54.30;;;;;;5031808;28;20461;-68
2022/03/28 00:58:42;;;;;;;27.77;17.20;;;12.60;54.40;;;;;;5031748;28;20546;-68
2022/03/28 01:01:12;;;;;;;24.77;16.10;;;12.60;54.50;;;;;;5032097;28;20455;-69
2022/03/28 01:03:39;;;;;;;24.80;17.50;;;12.60;55.00;;;;;;5032111;28;20457;-67
2022/03/28 01:06:07;;;;;;;24.33;14.87;;;12.40;55.20;;;;;;5031714;28;20458;-68
2022/03/28 01:08:34;;;;;;;19.77;14.93;;;12.50;55.10;;;;;;5031445;28;20489;-67
2022/03/28 01:11:04;;;;;;;28.83;16.00;;;12.40;55.10;;;;;;5031648;28;20505;-68
2022/03/28 01:13:33;;;;;;;23.93;15.43;;;12.30;55.60;;;;;;5031689;28;20519;-67
2022/03/28 01:16:01;;;;;;;21.77;15.70;;;12.30;55.60;;;;;;5031730;28;20538;-68
2022/03/28 01:18:28;;;;;;;20.10;15.17;;;12.30;55.60;;;;;;5031383;28;20482;-68
2022/03/28 01:20:57;;;;;;;21.13;14.97;;;12.30;55.80;;;;;;5031139;28;20987;-69
2022/03/28 01:23:25;;;;;;;20.77;15.23;;;12.40;56.00;;;;;;5031342;28;20511;-70
2022/03/28 01:25:53;;;;;;;18.77;14.47;;;12.40;56.00;;;;;;5031415;28;20445;-68
2022/03/28 01:28:22;;;;;;;22.50;15.10;;;12.40;56.30;;;;;;5031248;28;20570;-69
2022/03/28 01:30:49;;;;;;;24.47;15.77;;;12.40;55.70;;;;;;5031592;28;20907;-69
2022/03/28 01:33:17;;;;;;;22.43;15.43;;;12.50;56.00;;;;;;5031093;28;20487;-68
2022/03/28 01:35:45;;;;;;;24.73;16.33;;;12.50;55.90;;;;;;5031118;28;20462;-69
2022/03/28 01:38:15;;;;;;;21.77;16.07;;;12.30;56.60;;;;;;5030791;28;20489;-70
2022/03/28 01:40:44;;;;;;;26.63;14.87;;;12.10;57.20;;;;;;5031125;28;20455;-68
2022/03/28 01:43:12;;;;;;;24.80;15.17;;;12.10;57.00;;;;;;5030974;28;20455;-69
2022/03/28 01:45:40;;;;;;;24.57;16.90;;;12.10;57.00;;;;;;5030993;28;20948;-69
2022/03/28 01:48:08;;;;;;;24.30;14.93;;;12.10;57.30;;;;;;5030495;28;20502;-68
2022/03/28 01:50:35;;;;;;;22.40;15.07;;;12.00;57.30;;;;;;5030506;28;20447;-68
2022/03/28 01:53:02;;;;;;;25.13;14.83;;;11.80;58.30;;;;;;5030599;28;20497;-67
2022/03/28 01:55:31;;;;;;;21.83;14.33;;;12.00;58.00;;;;;;5030794;28;20462;-68
2022/03/28 01:57:58;;;;;;;36.27;16.40;;;12.20;57.90;;;;;;5030727;28;20482;-69
2022/03/28 02:00:28;;;;;;;24.07;15.33;;;12.20;57.90;;;;;;5030358;28;20459;-68
2022/03/28 02:02:56;;;;;;;22.13;15.80;;;12.10;58.10;;;;;;5030498;28;20585;-69
2022/03/28 02:05:23;;;;;;;23.57;15.97;;;12.00;58.30;;;;;;5030400;28;20486;-69
2022/03/28 02:07:50;;;;;;;23.90;14.80;;;12.00;58.80;;;;;;5030423;28;20481;-67
2022/03/28 02:10:19;;;;;;;26.23;16.63;;;12.00;59.00;;;;;;5030487;28;20455;-68
2022/03/28 02:12:49;;;;;;;24.27;15.27;;;12.00;59.00;;;;;;5029797;28;20490;-68
2022/03/28 02:15:16;;;;;;;22.97;16.00;;;12.00;59.40;;;;;;5030171;28;20594;-68
2022/03/28 02:17:43;;;;;;;18.83;13.90;;;12.00;59.30;;;;;;5029779;28;20487;-68
2022/03/28 02:20:11;;;;;;;20.50;13.97;;;12.10;59.70;;;;;;5030010;28;20446;-69
2022/03/28 02:22:40;;;;;;;18.73;13.57;;;12.10;59.50;;;;;;5030610;28;20463;-67
2022/03/28 02:25:10;;;;;;;19.00;14.63;;;12.10;59.70;;;;;;5030809;28;20505;-69
2022/03/28 02:27:38;;;;;;;21.37;14.17;;;12.00;60.30;;;;;;5030021;28;20942;-67
2022/03/28 02:30:09;;;;;;;21.37;14.60;;;11.80;61.70;;;;;;5029984;28;20513;-68
2022/03/28 02:32:37;;;;;;;22.43;13.43;;;11.80;61.60;;;;;;5030191;28;20450;-68
2022/03/28 02:35:07;;;;;;;19.17;14.43;;;11.80;61.90;;;;;;5029965;28;20545;-68
2022/03/28 02:37:34;;;;;;;22.03;14.40;;;11.90;62.10;;;;;;5029869;28;20967;-68
2022/03/28 02:40:01;;;;;;;19.57;13.70;;;11.80;62.20;;;;;;5029856;28;20459;-69
2022/03/28 02:42:29;;;;;;;18.73;13.40;;;11.70;63.90;;;;;;5030095;28;20458;-68
2022/03/28 02:44:56;;;;;;;20.63;13.00;;;11.50;65.40;;;;;;5030272;28;20546;-67
2022/03/28 02:47:25;;;;;;;20.23;12.47;;;10.90;68.30;;;;;;5029837;28;20494;-68
2022/03/28 02:49:53;;;;;;;17.90;12.63;;;10.60;71.00;;;;;;5030278;28;20516;-67
2022/03/28 02:52:21;;;;;;;17.87;12.93;;;10.90;71.00;;;;;;5029924;28;20894;-68
2022/03/28 02:54:48;;;;;;;18.17;13.30;;;11.10;70.60;;;;;;5030006;28;21229;-69
2022/03/28 02:57:15;;;;;;;19.57;12.77;;;11.30;69.40;;;;;;5029701;28;20461;-69
2022/03/28 02:59:43;;;;;;;17.00;12.77;;;11.30;68.90;;;;;;5029464;28;20478;-68
2022/03/28 03:02:10;;;;;;;19.53;12.80;;;11.40;68.60;;;;;;5029893;28;20455;-69
2022/03/28 03:04:39;;;;;;;21.00;12.50;;;11.40;68.40;;;;;;5030029;28;20457;-70
2022/03/28 03:07:06;;;;;;;16.40;12.07;;;11.50;68.10;;;;;;5029544;28;20449;-69
2022/03/28 03:09:34;;;;;;;21.80;13.07;;;11.20;69.30;;;;;;5029588;28;21021;-67
2022/03/28 03:12:01;;;;;;;17.30;11.83;;;11.30;69.80;;;;;;5029565;28;20550;-68
2022/03/28 03:14:28;;;;;;;17.03;12.53;;;11.20;70.20;;;;;;5029799;28;20995;-69
2022/03/28 03:16:56;;;;;;;21.97;12.73;;;11.20;70.60;;;;;;5030301;28;20455;-71
2022/03/28 03:19:23;;;;;;;18.13;11.70;;;11.20;70.60;;;;;;5030557;28;20479;-69
2022/03/28 03:21:52;;;;;;;17.53;13.80;;;11.20;71.30;;;;;;5029950;28;20462;-68
2022/03/28 03:24:19;;;;;;;21.00;13.57;;;11.10;71.00;;;;;;5029702;28;20803;-68
2022/03/28 03:26:46;;;;;;;20.53;13.70;;;11.10;70.80;;;;;;5029872;28;20958;-68
2022/03/28 03:29:13;;;;;;;21.13;14.50;;;10.90;71.70;;;;;;5029179;28;20848;-68
2022/03/28 03:31:41;;;;;;;20.13;12.70;;;10.90;72.10;;;;;;5032049;28;20458;-68
2022/03/28 03:34:08;;;;;;;21.73;14.60;;;11.00;71.90;;;;;;5033129;28;20478;-68
2022/03/28 03:36:35;;;;;;;24.37;14.30;;;11.10;71.80;;;;;;5033309;28;20457;-68
2022/03/28 03:39:04;;;;;;;21.03;15.30;;;11.00;71.80;;;;;;5033193;28;20546;-68
2022/03/28 03:41:32;;;;;;;21.50;13.93;;;11.00;72.20;;;;;;5033405;28;20451;-70
2022/03/28 03:43:59;;;;;;;22.43;14.37;;;10.90;72.70;;;;;;5033532;28;20542;-70
2022/03/28 03:46:26;;;;;;;22.20;14.10;;;10.90;73.50;;;;;;5033267;28;20450;-68
2022/03/28 03:48:54;;;;;;;18.10;13.70;;;11.00;73.10;;;;;;5032677;28;20489;-67
2022/03/28 03:51:21;;;;;;;19.13;14.00;;;10.90;74.20;;;;;;5033081;28;20454;-68
2022/03/28 03:53:48;;;;;;;24.53;13.63;;;10.90;73.60;;;;;;5032984;28;20552;-68
2022/03/28 03:56:17;;;;;;;22.00;15.73;;;10.80;74.00;;;;;;5033436;28;20454;-68
2022/03/28 03:58:44;;;;;;;24.27;16.00;;;10.60;75.10;;;;;;5033549;28;20569;-69
2022/03/28 04:01:12;;;;;;;25.27;15.93;;;10.60;75.00;;;;;;5033516;28;20463;-69
2022/03/28 04:03:40;;;;;;;22.97;16.40;;;10.70;74.50;;;;;;5032822;28;20982;-69
2022/03/28 04:06:10;;;;;;;27.53;16.47;;;10.70;74.60;;;;;;5033112;28;20958;-69
2022/03/28 04:08:38;;;;;;;27.70;15.40;;;10.60;74.80;;;;;;5032958;28;20502;-68
2022/03/28 04:11:06;;;;;;;20.67;14.87;;;10.50;75.80;;;;;;5032908;28;20443;-69
2022/03/28 04:13:35;;;;;;;25.90;14.20;;;10.50;76.30;;;;;;5032473;28;20586;-69
2022/03/28 04:16:02;;;;;;;21.70;13.57;;;10.40;76.70;;;;;;5032699;28;20461;-69
2022/03/28 04:18:30;;;;;;;30.70;15.33;;;10.30;78.00;;;;;;5033020;28;20974;-70
2022/03/28 04:20:57;;;;;;;19.77;13.20;;;10.10;79.20;;;;;;5032624;28;20455;-68
2022/03/28 04:23:26;;;;;;;24.13;13.50;;;10.00;79.90;;;;;;5032917;28;20573;-69
2022/03/28 04:25:54;;;;;;;23.90;12.83;;;10.00;80.70;;;;;;5032780;28;20462;-69
2022/03/28 04:28:21;;;;;;;28.57;15.13;;;9.90;82.80;;;;;;5032519;28;20955;-67
2022/03/28 04:30:51;;;;;;;29.17;16.37;;;9.80;83.70;;;;;;5032726;28;20459;-69
2022/03/28 04:33:19;;;;;;;23.73;15.27;;;9.60;85.10;;;;;;5032701;28;20489;-67
2022/03/28 04:35:46;;;;;;;27.60;15.77;;;9.50;86.20;;;;;;5032576;28;20913;-70
2022/03/28 04:38:13;;;;;;;30.20;14.23;;;9.40;87.30;;;;;;5032730;28;20481;-69
2022/03/28 04:40:41;;;;;;;21.30;13.33;;;9.40;88.00;;;;;;5033088;28;20451;-69
2022/03/28 04:43:09;;;;;;;24.90;14.77;;;9.40;89.00;;;;;;5031969;28;20454;-70
2022/03/28 04:45:36;;;;;;;23.83;13.27;;;9.30;90.00;;;;;;5032270;28;20942;-68
2022/03/28 04:48:06;;;;;;;20.90;12.60;;;9.20;90.50;;;;;;5032052;28;20494;-68
2022/03/28 04:50:33;;;;;;;24.80;14.57;;;9.20;91.00;;;;;;5032078;28;20505;-68
2022/03/28 04:53:03;;;;;;;22.20;15.93;;;9.30;91.30;;;;;;5032543;28;20454;-68
2022/03/28 04:55:30;;;;;;;25.10;15.43;;;9.30;91.60;;;;;;5032003;28;20491;-67
2022/03/28 04:57:58;;;;;;;20.63;13.40;;;9.30;92.30;;;;;;5032143;28;20478;-73
2022/03/28 05:00:25;;;;;;;23.07;14.60;;;9.50;92.60;;;;;;5031927;28;20979;-68
2022/03/28 05:02:54;;;;;;;32.23;20.43;;;9.70;92.60;;;;;;5031561;28;20960;-67
2022/03/28 05:05:22;;;;;;;38.80;25.10;;;9.90;91.50;;;;;;5031941;28;20517;-69
2022/03/28 05:07:49;;;;;;;38.13;27.53;;;10.10;87.50;;;;;;5031807;28;20477;-67
2022/03/28 05:10:17;;;;;;;40.83;27.13;;;10.10;83.50;;;;;;5031410;28;21030;-68
2022/03/28 05:12:45;;;;;;;43.87;26.17;;;10.20;81.00;;;;;;5032066;28;20443;-67
2022/03/28 05:15:12;;;;;;;29.83;22.57;;;10.30;79.60;;;;;;5032044;28;20487;-68
2022/03/28 05:17:39;;;;;;;25.43;20.50;;;10.20;79.80;;;;;;5031776;28;20489;-68
2022/03/28 05:20:09;;;;;;;28.23;20.00;;;10.30;79.30;;;;;;5031688;28;20463;-66
2022/03/28 05:22:38;;;;;;;30.80;19.70;;;10.10;79.50;;;;;;5031333;28;20534;-68
2022/03/28 05:25:07;;;;;;;27.33;18.00;;;10.10;80.00;;;;;;5031376;28;20513;-68
2022/03/28 05:27:41;;;;;;;28.43;17.50;;;10.20;79.20;;;;;;5031137;28;20486;-69
2022/03/28 05:30:10;;;;;;;30.83;17.50;;;10.30;79.20;;;;;;5030965;28;20454;-69
2022/03/28 05:32:37;;;;;;;30.60;17.50;;;10.40;79.00;;;;;;5031064;28;20927;-69
2022/03/28 05:35:07;;;;;;;26.70;18.07;;;10.20;80.30;;;;;;5013079;28;20565;-69
2022/03/28 05:37:35;;;;;;;26.00;18.13;;;10.20;81.90;;;;;;5031030;28;20975;-68
2022/03/28 05:40:05;;;;;;;24.37;16.93;;;10.30;81.20;;;;;;5031177;28;20451;-69
2022/03/28 05:42:34;;;;;;;26.00;17.77;;;10.60;80.40;;;;;;5031350;28;20482;-69
2022/03/28 05:45:01;;;;;;;31.43;16.23;;;10.60;79.90;;;;;;5031274;28;20557;-69
2022/03/28 05:47:28;;;;;;;21.00;15.20;;;10.60;80.40;;;;;;5030271;28;20486;-70
2022/03/28 05:49:55;;;;;;;21.30;15.67;;;10.80;80.20;;;;;;5030729;28;20466;-69
2022/03/28 05:52:23;;;;;;;21.80;15.00;;;10.90;79.20;;;;;;5030927;28;20459;-68
2022/03/28 05:54:50;;;;;;;22.33;15.40;;;10.90;79.00;;;;;;5029860;28;20482;-68
2022/03/28 05:57:18;;;;;;;20.60;16.00;;;10.90;79.60;;;;;;5031020;28;20867;-66
2022/03/28 05:59:46;;;;;;;23.47;14.80;;;11.00;79.20;;;;;;5030935;28;20451;-69
2022/03/28 06:02:13;;;;;;;34.60;16.37;;;11.10;79.50;;;;;;5030515;28;20462;-68
2022/03/28 06:04:40;;;;;;;19.67;15.53;;;11.30;78.80;;;;;;5030560;28;20466;-67
2022/03/28 06:07:07;;;;;;;28.17;17.10;;;11.40;77.90;;;;;;5030504;28;20497;-69
2022/03/28 06:09:38;;;;;;;25.97;16.47;;;11.30;77.90;;;;;;5030570;28;20589;-69
2022/03/28 06:12:07;;;;;;;32.00;15.80;;;11.50;77.40;;;;;;5030911;28;20463;-69
2022/03/28 06:14:36;;;;;;;24.07;16.57;;;11.70;75.80;;;;;;5030411;28;20482;-67
2022/03/28 06:17:03;;;;;;;28.73;16.03;;;11.50;76.20;;;;;;5030178;28;20558;-68
2022/03/28 06:19:30;;;;;;;25.97;15.60;;;11.50;76.10;;;;;;5030349;28;20451;-67
2022/03/28 06:22:00;;;;;;;23.47;16.07;;;11.60;76.00;;;;;;5030047;28;20454;-71
2022/03/28 06:24:28;;;;;;;23.70;15.30;;;11.70;76.40;;;;;;5030865;28;20539;-70
2022/03/28 06:26:55;;;;;;;27.13;16.33;;;11.80;75.70;;;;;;5030781;28;20828;-68
2022/03/28 06:29:27;;;;;;;26.80;18.43;;;11.90;75.40;;;;;;5030426;28;20459;-76
2022/03/28 06:31:56;;;;;;;26.93;19.77;;;12.00;75.10;;;;;;5029738;28;20443;-75
2022/03/28 06:34:23;;;;;;;28.90;18.13;;;12.10;75.00;;;;;;5029647;28;20841;-74
2022/03/28 06:36:50;;;;;;;36.17;19.57;;;12.20;74.50;;;;;;5029748;28;20459;-78
2022/03/28 06:39:17;;;;;;;24.10;17.93;;;12.30;73.80;;;;;;5029713;28;20451;-73
2022/03/28 06:41:44;;;;;;;28.37;19.17;;;12.40;73.20;;;;;;5029704;28;20462;-73
2022/03/28 06:44:12;;;;;;;29.47;17.43;;;12.60;72.80;;;;;;5029713;28;20447;-76
2022/03/28 06:46:40;;;;;;;26.00;18.60;;;12.70;72.90;;;;;;5029116;28;20499;-75
2022/03/28 06:49:09;;;;;;;28.57;19.80;;;12.90;72.40;;;;;;5028951;28;20565;-77
2022/03/28 06:51:36;;;;;;;30.60;17.53;;;12.90;72.20;;;;;;5029765;28;20450;-74
2022/03/28 06:54:04;;;;;;;31.27;19.00;;;13.00;71.90;;;;;;5029720;28;20904;-75
2022/03/28 06:56:31;;;;;;;29.93;18.97;;;13.20;70.90;;;;;;5029241;28;20455;-75
2022/03/28 06:58:58;;;;;;;25.73;19.13;;;13.20;70.30;;;;;;5029334;28;20852;-75
2022/03/28 07:04:11;;;;;;;23.40;16.47;;;13.40;69.40;;;;;;5029163;28;20462;-69
2022/03/28 07:06:38;;;;;;;25.40;16.20;;;13.50;69.40;;;;;;5034132;28;20457;-72
2022/03/28 07:09:07;;;;;;;21.70;15.53;;;13.50;69.00;;;;;;5033618;28;20526;-75
2022/03/28 07:11:35;;;;;;;20.13;16.77;;;13.70;69.20;;;;;;5033701;28;20483;-74
2022/03/28 07:14:02;;;;;;;23.60;16.33;;;13.90;69.30;;;;;;5033974;28;20446;-67
2022/03/28 07:16:29;;;;;;;27.80;16.47;;;14.20;68.00;;;;;;5034220;28;20462;-68
2022/03/28 07:18:56;;;;;;;37.20;20.17;;;14.30;67.30;;;;;;5033863;28;20478;-69
2022/03/28 07:21:26;;;;;;;23.93;14.90;;;14.40;67.20;;;;;;5033583;28;20451;-68
2022/03/28 07:23:53;;;;;;;21.17;15.07;;;14.70;66.40;;;;;;5033347;28;20435;-68
2022/03/28 07:26:20;;;;;;;20.07;13.00;;;14.90;66.60;;;;;;5033540;28;20455;-69
2022/03/28 07:28:48;;;;;;;15.80;12.23;;;15.00;65.90;;;;;;5033885;28;20479;-69
2022/03/28 07:31:15;;;;;;;19.90;14.60;;;15.10;65.90;;;;;;5033678;28;20447;-69
2022/03/28 07:33:43;;;;;;;24.53;14.90;;;15.40;64.80;;;;;;5033646;28;20928;-68
2022/03/28 07:36:10;;;;;;;20.70;14.03;;;15.70;64.10;;;;;;5033246;28;20490;-68
2022/03/28 07:38:39;;;;;;;18.70;14.03;;;16.00;63.30;;;;;;5033714;28;20537;-68
2022/03/28 07:41:06;;;;;;;27.10;13.37;;;16.30;62.20;;;;;;5033643;28;20521;-68
2022/03/28 07:43:33;;;;;;;18.30;14.30;;;16.60;61.00;;;;;;5033830;28;20462;-70
2022/03/28 07:46:00;;;;;;;16.03;13.63;;;16.70;60.30;;;;;;5033832;28;20454;-70
2022/03/28 07:48:28;;;;;;;18.50;14.70;;;16.90;59.60;;;;;;5033308;28;20501;-73
2022/03/28 07:51:00;;;;;;;17.67;13.97;;;17.20;59.10;;;;;;5033247;28;20443;-75
2022/03/28 07:53:28;;;;;;;23.63;15.30;;;17.40;58.60;;;;;;5033740;28;20458;-69
2022/03/28 07:55:56;;;;;;;21.80;15.03;;;17.40;58.10;;;;;;5033667;28;20581;-68
2022/03/28 07:58:23;;;;;;;20.07;14.17;;;17.50;57.80;;;;;;5032919;28;21056;-69
2022/03/28 08:00:50;;;;;;;19.70;15.60;;;17.50;57.80;;;;;;5032894;28;20455;-68
2022/03/28 08:03:18;;;;;;;21.07;15.57;;;17.30;58.20;;;;;;5033271;28;20481;-69
2022/03/28 08:05:46;;;;;;;22.87;13.80;;;17.50;58.10;;;;;;5033619;28;20906;-68
2022/03/28 08:08:13;;;;;;;18.90;14.70;;;17.70;57.80;;;;;;5033476;28;20477;-69
2022/03/28 08:10:41;;;;;;;19.47;13.67;;;17.80;57.30;;;;;;5050332;28;20461;-69
2022/03/28 08:13:10;;;;;;;17.80;13.40;;;17.80;57.10;;;;;;5052803;28;20450;-69
2022/03/28 08:15:37;;;;;;;18.33;14.00;;;18.00;57.40;;;;;;5051874;28;20524;-70
2022/03/28 08:18:08;;;;;;;19.33;14.97;;;18.10;57.20;;;;;;5051451;28;20470;-72
2022/03/28 08:20:38;;;;;;;21.77;15.40;;;18.30;56.90;;;;;;5052923;28;20454;-70
2022/03/28 08:23:05;;;;;;;24.67;16.70;;;18.40;56.40;;;;;;5052811;28;20763;-71
2022/03/28 08:25:33;;;;;;;27.07;20.33;;;18.50;55.90;;;;;;5053265;28;20450;-75
2022/03/28 08:28:01;;;;;;;18.50;15.73;;;18.70;56.10;;;;;;5053034;28;20503;-72
2022/03/28 08:30:37;;;;;;;20.50;15.83;;;18.70;55.50;;;;;;5052979;28;20464;-75
2022/03/28 08:33:05;;;;;;;20.53;14.10;;;18.90;55.50;;;;;;5053230;28;20453;-72
2022/03/28 08:35:32;;;;;;;18.20;14.17;;;19.00;55.60;;;;;;5052733;28;20481;-73
2022/03/28 08:38:17;;;;;;;20.90;14.30;;;19.20;55.60;;;;;;5051811;28;20485;-77
2022/03/28 08:40:45;;;;;;;15.30;13.40;;;19.40;54.90;;;;;;5052335;28;20885;-73
2022/03/28 08:43:17;;;;;;;26.70;13.90;;;19.40;54.70;;;;;;5052551;28;20446;-73
2022/03/28 08:45:46;;;;;;;18.30;13.97;;;19.30;55.00;;;;;;5052386;28;20530;-57
2022/03/28 08:48:27;;;;;;;18.57;14.47;;;19.60;54.30;;;;;;5051638;28;20508;-77
2022/03/28 08:50:55;;;;;;;23.43;13.73;;;19.60;54.20;;;;;;5052461;28;20453;-72
2022/03/28 08:53:22;;;;;;;17.70;13.50;;;19.70;54.30;;;;;;5051747;28;20541;-69
2022/03/28 08:55:49;;;;;;;21.00;14.50;;;19.90;54.40;;;;;;5051398;28;20523;-69
2022/03/28 08:58:16;;;;;;;18.00;14.27;;;19.90;53.30;;;;;;5051845;28;20476;-69
2022/03/28 09:00:45;;;;;;;25.13;13.87;;;19.90;53.20;;;;;;5051808;28;20457;-68
2022/03/28 09:03:12;;;;;;;21.43;13.80;;;19.60;53.00;;;;;;5051551;28;20480;-68
2022/03/28 09:05:41;;;;;;;21.80;13.90;;;19.50;53.90;;;;;;5051852;28;20967;-70
2022/03/28 09:08:14;;;;;;;17.87;14.50;;;19.60;53.70;;;;;;5051860;28;20505;-74
2022/03/28 09:10:47;;;;;;;17.63;13.90;;;19.60;53.80;;;;;;5052356;28;20571;-69
2022/03/28 09:13:18;;;;;;;17.23;13.20;;;20.00;54.00;;;;;;5051780;28;20446;-71
2022/03/28 09:15:50;;;;;;;17.90;13.40;;;20.20;53.40;;;;;;5051582;28;20580;-70
2022/03/28 09:18:22;;;;;;;15.63;12.33;;;20.30;53.50;;;;;;5051438;28;20970;-70
2022/03/28 09:20:50;;;;;;;16.67;11.83;;;20.20;53.40;;;;;;5049201;28;20458;-68
2022/03/28 09:23:44;;;;;;;15.80;12.73;;;20.20;53.40;;;;;;5050673;28;20500;-70
2022/03/28 09:26:16;;;;;;;17.67;11.80;;;20.20;53.10;;;;;;5036658;28;20837;-67
2022/03/28 09:28:48;;;;;;;19.87;13.90;;;20.20;53.20;;;;;;5049391;28;20492;-69
2022/03/28 09:31:26;;;;;;;22.87;13.93;;;20.00;53.10;;;;;;5051020;28;20454;-70
2022/03/28 09:34:09;;;;;;;25.27;14.27;;;20.20;53.20;;;;;;5050987;28;20445;-68
2022/03/28 09:36:55;;;;;;;15.57;12.17;;;20.40;52.40;;;;;;5049873;28;20485;-70
2022/03/28 09:39:25;;;;;;;17.97;12.43;;;20.60;52.90;;;;;;5050368;28;20469;-69
2022/03/28 09:42:04;;;;;;;20.80;14.40;;;20.80;52.10;;;;;;5050058;28;20465;-67
2022/03/28 09:44:36;;;;;;;18.27;13.23;;;20.90;51.80;;;;;;5050142;28;20449;-69
2022/03/28 09:47:13;;;;;;;17.63;12.57;;;21.10;51.80;;;;;;5050209;28;20474;-68
2022/03/28 09:49:42;;;;;;;19.17;14.53;;;21.30;51.30;;;;;;5049714;28;20845;-70
2022/03/28 09:52:11;;;;;;;15.93;13.73;;;21.40;51.40;;;;;;5049939;28;20454;-70
2022/03/28 09:54:51;;;;;;;16.43;12.90;;;21.60;51.80;;;;;;5050019;28;20924;-72
2022/03/28 09:57:21;;;;;;;21.23;13.20;;;21.30;50.20;;;;;;5049919;28;20836;-71
2022/03/28 09:59:48;;;;;;;16.90;12.23;;;21.30;50.40;;;;;;5049420;28;20503;-72
2022/03/28 10:02:35;;;;;;;15.40;11.80;;;21.40;50.30;;;;;;5049901;28;20464;-75
2022/03/28 10:05:03;;;;;;;16.13;12.13;;;21.50;50.50;;;;;;5049847;28;20505;-71
2022/03/28 10:07:32;;;;;;;16.40;11.27;;;21.70;50.30;;;;;;5049559;28;20458;-71
2022/03/28 10:09:59;;;;;;;18.23;13.20;;;22.10;49.90;;;;;;5050004;28;20453;-72
2022/03/28 10:12:27;;;;;;;16.93;13.17;;;22.10;49.20;;;;;;5049535;28;20457;-71
2022/03/28 10:14:57;;;;;;;16.50;12.67;;;22.10;48.40;;;;;;5049575;28;20454;-71
2022/03/28 10:17:33;;;;;;;14.10;11.00;;;22.00;48.60;;;;;;5049467;28;20547;-74
2022/03/28 10:20:00;;;;;;;15.03;11.13;;;22.10;48.80;;;;;;5049706;28;20442;-73
2022/03/28 10:22:32;;;;;;;15.63;12.00;;;22.30;48.50;;;;;;5034268;28;20454;-71
2022/03/28 10:25:04;;;;;;;14.93;10.97;;;22.40;48.20;;;;;;5029451;28;20455;-73
2022/03/28 10:27:33;;;;;;;13.53;10.00;;;22.40;48.40;;;;;;5029228;28;20459;-69
2022/03/28 10:30:11;;;;;;;17.57;11.33;;;22.40;48.60;;;;;;5029712;28;20458;-68
2022/03/28 10:32:40;;;;;;;15.60;11.33;;;22.30;48.40;;;;;;5029533;28;20462;-68
2022/03/28 10:35:08;;;;;;;15.43;11.50;;;22.30;48.10;;;;;;5028750;28;20462;-69
2022/03/28 10:37:37;;;;;;;15.03;11.97;;;22.20;47.70;;;;;;5029352;28;20463;-67
2022/03/28 10:40:27;;;;;;;14.63;11.30;;;22.30;47.40;;;;;;5029043;28;20451;-67
2022/03/28 10:43:02;;;;;;;13.97;10.87;;;22.30;47.80;;;;;;5029301;28;20449;-65
2022/03/28 10:45:33;;;;;;;15.23;11.07;;;22.60;48.00;;;;;;5029350;28;20763;-72
2022/03/28 10:48:03;;;;;;;21.97;17.67;;;22.90;47.70;;;;;;5028979;28;20490;-67
2022/03/28 10:50:34;;;;;;;15.77;12.63;;;22.90;47.60;;;;;;5029258;28;20447;-67
2022/03/28 10:53:15;;;;;;;16.20;10.70;;;23.00;47.10;;;;;;5028876;28;20454;-67
2022/03/28 10:55:48;;;;;;;15.50;11.60;;;23.10;46.80;;;;;;5028501;28;21007;-68
2022/03/28 10:58:21;;;;;;;15.70;10.97;;;22.90;47.20;;;;;;5029020;28;20497;-67
2022/03/28 11:01:23;;;;;;;16.33;12.43;;;22.80;47.30;;;;;;5029019;28;20810;-74
2022/03/28 11:04:00;;;;;;;15.60;11.47;;;22.90;46.90;;;;;;5028631;28;20462;-72
2022/03/28 11:06:49;;;;;;;17.17;13.50;;;22.70;46.90;;;;;;5029119;28;20454;-73
2022/03/28 11:09:51;;;;;;;17.47;12.70;;;22.60;47.20;;;;;;5029070;28;20478;-76
2022/03/28 11:12:21;;;;;;;15.60;10.67;;;22.60;47.00;;;;;;5028947;28;20545;-74
2022/03/28 11:14:56;;;;;;;14.93;10.73;;;22.60;46.90;;;;;;5029146;28;20825;-78
2022/03/28 11:17:25;;;;;;;17.20;10.60;;;22.50;47.20;;;;;;5028869;28;20505;-75
2022/03/28 11:19:57;;;;;;;20.90;12.97;;;22.50;47.10;;;;;;5028850;28;20895;-72
2022/03/28 11:22:48;;;;;;;20.43;13.23;;;22.50;47.00;;;;;;5028414;28;20451;-75
2022/03/28 11:25:46;;;;;;;20.53;12.53;;;22.20;46.70;;;;;;5028868;28;20537;-74
2022/03/28 11:28:19;;;;;;;19.30;11.23;;;21.90;47.10;;;;;;5028930;28;20509;-73
2022/03/28 11:30:59;;;;;;;15.27;10.53;;;21.80;46.90;;;;;;5028969;28;20558;-73
2022/03/28 11:33:34;;;;;;;21.27;15.77;;;21.50;47.50;;;;;;5028334;28;20920;-72
2022/03/28 11:36:04;;;;;;;15.67;11.70;;;21.50;48.00;;;;;;5029039;28;20482;-71
2022/03/28 11:38:33;;;;;;;16.23;10.93;;;21.50;48.10;;;;;;5028710;28;20506;-68
2022/03/28 11:41:02;;;;;;;17.63;11.20;;;21.20;48.10;;;;;;5028678;28;20469;-68
2022/03/28 11:43:31;;;;;;;14.40;11.77;;;21.00;48.10;;;;;;5028752;28;20541;-67
2022/03/28 11:45:59;;;;;;;14.33;9.60;;;20.90;48.00;;;;;;5028880;28;20454;-69
2022/03/28 11:48:26;;;;;;;15.70;10.27;;;20.90;48.40;;;;;;5028424;28;20498;-68
2022/03/28 11:50:55;;;;;;;13.20;10.10;;;20.90;48.30;;;;;;5028945;28;20457;-69
2022/03/28 11:53:24;;;;;;;14.53;9.87;;;21.00;48.10;;;;;;5031972;28;20482;-70
2022/03/28 11:55:53;;;;;;;15.03;10.83;;;21.10;48.20;;;;;;5032357;28;20494;-68
2022/03/28 11:58:29;;;;;;;13.97;9.33;;;21.10;48.40;;;;;;5032927;28;20455;-67
2022/03/28 12:01:09;;;;;;;15.17;10.53;;;21.20;48.40;;;;;;5032735;28;20504;-68
2022/03/28 12:03:37;;;;;;;14.33;10.13;;;21.20;47.90;;;;;;5032850;28;20458;-68
2022/03/28 12:06:05;;;;;;;17.17;10.67;;;21.20;48.00;;;;;;5032651;28;20478;-67
2022/03/28 12:08:34;;;;;;;15.83;11.00;;;21.10;47.50;;;;;;5032382;28;20454;-69
2022/03/28 12:11:01;;;;;;;14.43;10.13;;;21.10;47.60;;;;;;5032074;28;20450;-67
2022/03/28 12:13:28;;;;;;;13.60;10.40;;;21.10;47.60;;;;;;5032049;28;20454;-70
2022/03/28 12:15:56;;;;;;;16.97;11.17;;;21.20;47.00;;;;;;5031991;28;20486;-74
2022/03/28 12:18:30;;;;;;;15.33;10.20;;;21.50;46.90;;;;;;5031834;28;20470;-72
2022/03/28 12:20:58;;;;;;;13.87;10.60;;;21.60;46.90;;;;;;5031734;28;20455;-74
2022/03/28 12:23:27;;;;;;;15.87;9.63;;;21.90;46.50;;;;;;5031871;28;20864;-75
2022/03/28 12:25:56;;;;;;;17.70;10.50;;;22.20;46.50;;;;;;5031232;28;20553;-72
2022/03/28 12:28:33;;;;;;;18.67;9.50;;;22.60;46.20;;;;;;5031767;28;20462;-74
2022/03/28 12:31:02;;;;;;;14.87;10.97;;;22.90;45.70;;;;;;5032016;28;20450;-73
2022/03/28 12:33:32;;;;;;;16.80;11.03;;;23.20;44.20;;;;;;5032412;28;20497;-76
2022/03/28 12:36:01;;;;;;;16.10;10.50;;;23.30;43.90;;;;;;5032993;28;20498;-75
2022/03/28 12:38:31;;;;;;;14.20;10.23;;;23.60;43.70;;;;;;5032139;28;20474;-73
2022/03/28 12:41:03;;;;;;;17.23;10.97;;;23.70;43.30;;;;;;5033119;28;20474;-76
2022/03/28 12:43:31;;;;;;;11.80;9.67;;;23.50;42.80;;;;;;5032278;28;20447;-75